createdAt,value
2022-10-29T00:01:17.749Z,95.90
2022-10-29T00:03:44.950Z,95.90
2022-10-29T00:06:18.945Z,95.90
2022-10-29T00:08:51.703Z,95.90
2022-10-29T00:11:26.557Z,95.90
2022-10-29T00:13:56.383Z,95.90
2022-10-29T00:16:27.063Z,95.90
2022-10-29T00:19:02.053Z,96.00
2022-10-29T00:21:39.845Z,95.90
2022-10-29T00:24:10.791Z,95.90
2022-10-29T00:26:38.203Z,96.00
2022-10-29T00:29:08.161Z,96.00
2022-10-29T00:31:35.354Z,96.00
2022-10-29T00:34:10.312Z,96.00
2022-10-29T00:36:37.911Z,95.90
2022-10-29T00:39:05.223Z,96.00
2022-10-29T00:41:35.105Z,96.00
2022-10-29T00:44:22.970Z,96.00
2022-10-29T00:46:59.149Z,96.00
2022-10-29T00:49:27.606Z,96.00
2022-10-29T00:51:55.632Z,96.10
2022-10-29T00:54:28.971Z,96.10
2022-10-29T00:57:14.552Z,96.10
2022-10-29T00:59:43.945Z,96.00
2022-10-29T01:02:11.615Z,96.00
2022-10-29T01:04:42.897Z,96.00
2022-10-29T01:07:12.924Z,96.00
2022-10-29T01:09:43.783Z,96.00
2022-10-29T01:12:38.140Z,96.00
2022-10-29T01:15:29.632Z,96.00
2022-10-29T01:18:21.184Z,96.10
2022-10-29T01:21:18.768Z,96.10
2022-10-29T01:24:29.000Z,96.10
2022-10-29T01:27:05.162Z,96.10
2022-10-29T01:30:09.586Z,96.10
2022-10-29T01:32:39.411Z,96.10
2022-10-29T01:35:19.121Z,96.20
2022-10-29T01:38:04.999Z,96.10
2022-10-29T01:40:42.902Z,96.10
2022-10-29T01:43:25.734Z,96.20
2022-10-29T01:46:20.620Z,96.20
2022-10-29T01:48:52.013Z,96.10
2022-10-29T01:51:23.455Z,96.20
2022-10-29T01:53:52.108Z,96.20
2022-10-29T01:56:19.357Z,96.20
2022-10-29T01:58:56.372Z,96.20
2022-10-29T02:01:41.718Z,96.20
2022-10-29T02:04:33.310Z,96.20
2022-10-29T02:07:18.959Z,96.20
2022-10-29T02:10:19.202Z,96.20
2022-10-29T02:12:54.630Z,96.10
2022-10-29T02:15:38.027Z,96.20
2022-10-29T02:18:10.687Z,96.20
2022-10-29T02:20:43.045Z,96.20
2022-10-29T02:23:10.675Z,96.10
2022-10-29T02:25:37.877Z,96.20
2022-10-29T02:28:07.361Z,96.20
2022-10-29T02:30:37.024Z,96.20
2022-10-29T02:33:04.556Z,96.20
2022-10-29T02:35:34.163Z,96.20
2022-10-29T02:38:04.665Z,96.20
2022-10-29T02:40:31.932Z,96.10
2022-10-29T02:43:02.195Z,96.10
2022-10-29T02:45:32.056Z,96.10
2022-10-29T02:47:59.564Z,96.10
2022-10-29T02:50:26.916Z,96.10
2022-10-29T02:52:54.279Z,96.00
2022-10-29T02:55:23.855Z,96.00
2022-10-29T02:57:51.074Z,96.00
2022-10-29T03:00:18.907Z,96.00
2022-10-29T03:02:46.217Z,96.00
2022-10-29T03:05:13.713Z,96.00
2022-10-29T03:07:40.898Z,96.00
2022-10-29T03:10:11.021Z,96.00
2022-10-29T03:12:38.311Z,96.00
2022-10-29T03:15:07.280Z,96.00
2022-10-29T03:17:34.527Z,96.00
2022-10-29T03:20:01.663Z,96.30
2022-10-29T03:22:28.921Z,96.00
2022-10-29T03:24:58.741Z,96.00
2022-10-29T03:27:25.984Z,96.00
2022-10-29T03:29:53.238Z,96.00
2022-10-29T03:32:20.491Z,96.00
2022-10-29T03:34:57.443Z,96.00
2022-10-29T03:37:27.047Z,96.00
2022-10-29T03:39:56.394Z,96.00
2022-10-29T03:42:23.951Z,96.00
2022-10-29T03:44:53.652Z,96.00
2022-10-29T03:47:20.786Z,96.00
2022-10-29T03:49:47.947Z,96.00
2022-10-29T03:52:15.062Z,96.00
2022-10-29T03:54:42.566Z,96.00
2022-10-29T03:57:09.731Z,96.00
2022-10-29T03:59:39.970Z,96.00
2022-10-29T04:02:14.609Z,96.00
2022-10-29T04:04:44.096Z,96.00
2022-10-29T04:07:12.532Z,96.00
2022-10-29T04:09:39.898Z,96.00
2022-10-29T04:12:08.782Z,96.00
2022-10-29T04:14:38.101Z,96.00
2022-10-29T04:17:11.768Z,96.00
2022-10-29T04:19:39.074Z,96.00
2022-10-29T04:30:30.263Z,96.00
2022-10-29T04:32:59.580Z,96.00
2022-10-29T04:35:28.585Z,95.90
2022-10-29T04:37:55.929Z,96.20
2022-10-29T04:40:26.055Z,95.90
2022-10-29T04:42:53.363Z,96.00
2022-10-29T04:45:20.693Z,96.00
2022-10-29T04:47:47.793Z,96.00
2022-10-29T04:50:14.969Z,96.10
2022-10-29T04:52:43.170Z,96.10
2022-10-29T04:55:13.225Z,96.10
2022-10-29T04:57:40.367Z,96.10
2022-10-29T05:00:07.961Z,96.20
2022-10-29T05:02:36.511Z,96.20
2022-10-29T05:05:03.690Z,96.20
2022-10-29T05:07:30.837Z,96.20
2022-10-29T05:09:58.000Z,96.20
2022-10-29T05:12:25.106Z,96.20
2022-10-29T05:14:52.312Z,96.20
2022-10-29T05:17:19.403Z,96.20
2022-10-29T05:19:46.556Z,96.10
2022-10-29T05:22:13.710Z,96.10
2022-10-29T05:24:40.789Z,96.10
2022-10-29T05:27:08.351Z,96.10
2022-10-29T05:29:35.456Z,96.10
2022-10-29T05:32:04.983Z,96.10
2022-10-29T05:34:35.285Z,96.10
2022-10-29T05:37:05.511Z,96.10
2022-10-29T05:39:34.912Z,96.10
2022-10-29T05:42:02.003Z,96.00
2022-10-29T05:44:29.250Z,96.00
2022-10-29T05:46:56.491Z,96.00
2022-10-29T05:49:23.658Z,96.00
2022-10-29T05:51:54.040Z,96.00
2022-10-29T05:54:21.537Z,96.00
2022-10-29T05:56:49.156Z,96.00
2022-10-29T05:59:16.359Z,96.00
2022-10-29T06:01:44.838Z,96.00
2022-10-29T06:04:12.054Z,96.00
2022-10-29T06:06:39.286Z,95.90
2022-10-29T06:09:08.043Z,95.90
2022-10-29T06:11:35.037Z,95.90
2022-10-29T06:14:02.381Z,95.90
2022-10-29T06:16:29.479Z,96.00
2022-10-29T06:18:56.639Z,96.00
2022-10-29T06:21:23.869Z,96.00
2022-10-29T06:23:54.111Z,96.00
2022-10-29T06:26:23.772Z,96.00
2022-10-29T06:28:51.155Z,95.90
2022-10-29T06:31:18.258Z,95.90
2022-10-29T06:33:48.482Z,95.90
2022-10-29T06:36:15.556Z,95.90
2022-10-29T06:38:42.654Z,95.90
2022-10-29T06:41:16.605Z,95.80
2022-10-29T06:43:43.746Z,95.80
2022-10-29T06:46:10.811Z,95.80
2022-10-29T06:48:38.160Z,95.80
2022-10-29T06:51:05.398Z,95.70
2022-10-29T06:53:32.620Z,95.70
2022-10-29T06:56:00.173Z,95.70
2022-10-29T06:58:27.407Z,95.70
2022-10-29T07:00:54.918Z,95.70
2022-10-29T07:03:24.565Z,95.70
2022-10-29T07:05:59.263Z,95.70
2022-10-29T07:08:27.098Z,95.70
2022-10-29T07:10:54.805Z,95.70
2022-10-29T07:13:24.560Z,95.70
2022-10-29T07:15:51.719Z,95.60
2022-10-29T07:18:19.112Z,95.60
2022-10-29T07:20:49.422Z,95.60
2022-10-29T07:23:17.160Z,95.60
2022-10-29T07:28:51.288Z,95.50
2022-10-29T07:31:18.488Z,95.50
2022-10-29T07:33:45.898Z,95.40
2022-10-29T07:36:25.941Z,95.40
2022-10-29T07:39:10.410Z,95.40
2022-10-29T07:41:59.306Z,95.40
2022-10-29T07:44:38.140Z,95.30
2022-10-29T07:47:15.921Z,95.30
2022-10-29T07:49:57.259Z,95.30
2022-10-29T07:52:30.256Z,95.30
2022-10-29T07:55:06.562Z,95.30
2022-10-29T07:57:33.924Z,95.30
2022-10-29T08:04:42.278Z,95.40
2022-10-29T08:10:50.122Z,95.30
2022-10-29T08:13:27.796Z,95.30
2022-10-29T08:15:58.278Z,95.40
2022-10-29T08:23:38.277Z,95.30
2022-10-29T08:33:44.098Z,95.10
2022-10-29T08:36:15.063Z,95.10
2022-10-29T08:38:42.394Z,95.10
2022-10-29T08:41:33.757Z,95.10
2022-10-29T08:44:14.614Z,95.40
2022-10-29T08:47:13.661Z,95.10
2022-10-29T08:49:51.860Z,95.10
2022-10-29T08:52:29.221Z,95.10
2022-10-29T08:55:23.847Z,95.10
2022-10-29T08:58:08.340Z,95.10
2022-10-29T09:00:42.228Z,95.10
2022-10-29T09:03:13.004Z,95.10
2022-10-29T09:06:06.474Z,95.10
2022-10-29T09:08:45.087Z,95.10
2022-10-29T09:11:50.886Z,95.10
2022-10-29T09:15:03.855Z,95.10
2022-10-29T09:17:55.965Z,95.30
2022-10-29T09:20:37.065Z,95.00
2022-10-29T09:23:44.154Z,95.00
2022-10-29T09:26:20.417Z,94.90
2022-10-29T09:29:00.805Z,94.80
2022-10-29T09:31:45.125Z,94.70
2022-10-29T09:34:26.006Z,94.70
2022-10-29T09:36:56.429Z,94.60
2022-10-29T09:39:38.736Z,94.50
2022-10-29T09:42:17.175Z,94.50
2022-10-29T09:45:02.625Z,94.50
2022-10-29T09:47:52.593Z,94.50
2022-10-29T09:50:44.073Z,94.40
2022-10-29T09:53:13.987Z,94.40
2022-10-29T09:55:44.902Z,94.40
2022-10-29T09:58:26.963Z,94.40
2022-10-29T10:01:04.675Z,94.40
2022-10-29T10:06:31.850Z,94.30
2022-10-29T10:09:08.750Z,94.30
2022-10-29T10:12:00.062Z,94.30
2022-10-29T10:14:28.022Z,94.30
2022-10-29T10:17:04.010Z,94.30
2022-10-29T10:19:38.952Z,94.20
2022-10-29T10:22:16.555Z,94.20
2022-10-29T10:24:44.077Z,94.20
2022-10-29T10:27:29.558Z,94.20
2022-10-29T10:30:15.994Z,94.20
2022-10-29T10:32:46.149Z,94.20
2022-10-29T10:35:33.700Z,94.20
2022-10-29T10:38:15.091Z,94.10
2022-10-29T10:40:54.309Z,94.10
2022-10-29T10:43:24.753Z,94.00
2022-10-29T10:45:58.953Z,93.90
2022-10-29T10:51:25.206Z,93.90
2022-10-29T10:56:58.701Z,93.80
2022-10-29T10:59:47.264Z,93.70
2022-10-29T11:02:22.090Z,93.60
2022-10-29T11:05:06.828Z,93.50
2022-10-29T11:07:41.781Z,93.40
2022-10-29T11:10:23.319Z,93.30
2022-10-29T11:12:57.725Z,93.20
2022-10-29T11:15:41.994Z,93.20
2022-10-29T11:18:21.637Z,93.10
2022-10-29T11:21:11.000Z,93.00
2022-10-29T11:24:08.116Z,92.90
2022-10-29T11:26:50.105Z,92.90
2022-10-29T11:29:28.318Z,92.90
2022-10-29T11:32:13.902Z,93.20
2022-10-29T11:34:45.671Z,92.80
2022-10-29T11:40:24.476Z,92.70
2022-10-29T11:42:54.814Z,92.60
2022-10-29T11:45:43.247Z,92.70
2022-10-29T11:51:09.398Z,92.80
2022-10-29T11:54:05.144Z,92.90
2022-10-29T11:56:41.501Z,92.90
2022-10-29T11:59:33.369Z,93.00
2022-10-29T12:02:03.610Z,93.00
2022-10-29T12:04:44.089Z,93.00
2022-10-29T12:08:11.415Z,93.00
2022-10-29T12:11:04.776Z,92.80
2022-10-29T12:14:00.508Z,92.70
2022-10-29T12:17:20.106Z,92.50
2022-10-29T12:20:11.227Z,92.40
2022-10-29T12:23:05.242Z,92.40
2022-10-29T12:26:21.509Z,92.30
2022-10-29T12:28:58.533Z,92.30
2022-10-29T12:31:43.798Z,92.40
2022-10-29T12:34:39.867Z,92.30
2022-10-29T12:41:54.372Z,92.20
2022-10-29T12:44:23.872Z,92.20
2022-10-29T12:47:12.613Z,92.10
2022-10-29T12:49:43.075Z,92.00
2022-10-29T12:52:54.002Z,91.90
2022-10-29T12:55:57.140Z,91.90
2022-10-29T12:58:45.152Z,91.90
2022-10-29T13:05:23.429Z,92.00
2022-10-29T13:08:05.105Z,92.10
2022-10-29T13:10:41.546Z,92.20
2022-10-29T13:13:17.993Z,92.20
2022-10-29T13:16:02.490Z,92.10
2022-10-29T13:19:00.433Z,91.90
2022-10-29T13:21:57.252Z,91.90
2022-10-29T13:24:25.802Z,91.80
2022-10-29T13:30:14.554Z,91.70
2022-10-29T13:32:44.009Z,91.60
2022-10-29T13:35:20.561Z,91.60
2022-10-29T13:37:50.288Z,91.50
2022-10-29T13:40:23.720Z,91.50
2022-10-29T13:43:03.155Z,91.40
2022-10-29T13:45:35.338Z,91.30
2022-10-29T13:48:04.790Z,91.20
2022-10-29T13:50:36.913Z,91.20
2022-10-29T13:53:14.908Z,91.20
2022-10-29T13:55:55.460Z,91.20
2022-10-29T13:58:36.478Z,91.20
2022-10-29T14:01:11.896Z,91.20
2022-10-29T14:04:14.011Z,91.20
2022-10-29T14:06:42.085Z,91.20
2022-10-29T14:09:28.967Z,91.30
2022-10-29T14:12:06.341Z,91.40
2022-10-29T14:14:43.784Z,91.40
2022-10-29T14:17:20.155Z,91.40
2022-10-29T14:20:03.270Z,91.40
2022-10-29T14:22:35.784Z,91.40
2022-10-29T14:25:32.999Z,91.50
2022-10-29T14:28:10.445Z,91.40
2022-10-29T14:30:37.401Z,91.50
2022-10-29T14:33:24.908Z,91.50
2022-10-29T14:35:56.245Z,91.50
2022-10-29T14:38:31.622Z,91.60
2022-10-29T14:40:58.772Z,91.70
2022-10-29T14:43:28.670Z,91.70
2022-10-29T14:46:29.651Z,91.70
2022-10-29T14:49:03.017Z,91.70
2022-10-29T14:51:49.693Z,91.80
2022-10-29T14:54:28.034Z,91.80
2022-10-29T14:57:00.705Z,91.80
2022-10-29T14:59:30.155Z,91.80
2022-10-29T15:02:17.137Z,91.90
2022-10-29T15:05:22.920Z,92.00
2022-10-29T15:07:50.545Z,92.00
2022-10-29T15:10:23.056Z,92.20
2022-10-29T15:12:55.758Z,92.20
2022-10-29T15:15:29.406Z,92.20
2022-10-29T15:18:14.881Z,92.20
2022-10-29T15:20:41.857Z,92.30
2022-10-29T15:23:34.156Z,92.40
2022-10-29T15:26:05.338Z,92.40
2022-10-29T15:28:38.908Z,92.60
2022-10-29T15:31:06.496Z,92.70
2022-10-29T15:33:37.191Z,92.80
2022-10-29T15:36:05.551Z,92.80
2022-10-29T15:38:35.132Z,92.90
2022-10-29T15:41:08.269Z,93.00
2022-10-29T15:43:48.353Z,93.00
2022-10-29T15:46:29.774Z,93.10
2022-10-29T15:48:57.017Z,93.10
2022-10-29T15:51:30.444Z,93.20
2022-10-29T15:54:02.311Z,93.30
2022-10-29T15:56:31.850Z,93.30
2022-10-29T15:59:00.577Z,93.40
2022-10-29T16:04:34.122Z,93.50
2022-10-29T16:07:01.364Z,93.50
2022-10-29T16:09:29.495Z,93.60
2022-10-29T16:14:37.351Z,93.70
2022-10-29T16:17:10.288Z,93.70
2022-10-29T16:19:37.228Z,93.80
2022-10-29T16:22:04.261Z,93.80
2022-10-29T16:24:31.378Z,93.90
2022-10-29T16:26:58.500Z,93.90
2022-10-29T16:29:25.603Z,94.00
2022-10-29T16:31:52.649Z,94.00
2022-10-29T16:34:23.739Z,94.10
2022-10-29T16:36:51.736Z,94.10
2022-10-29T16:39:18.675Z,94.20
2022-10-29T16:41:45.785Z,94.20
2022-10-29T16:44:13.819Z,94.30
2022-10-29T16:46:43.766Z,94.30
2022-10-29T16:49:10.755Z,94.60
2022-10-29T16:51:38.240Z,94.30
2022-10-29T16:54:05.187Z,94.30
2022-10-29T16:56:32.059Z,94.40
2022-10-29T16:59:01.847Z,94.30
2022-10-29T17:01:29.124Z,94.30
2022-10-29T17:03:56.240Z,94.30
2022-10-29T17:06:23.200Z,94.40
2022-10-29T17:08:50.171Z,94.40
2022-10-29T17:11:17.320Z,94.40
2022-10-29T17:13:44.811Z,94.40
2022-10-29T17:16:16.590Z,94.50
2022-10-29T17:18:43.819Z,94.50
2022-10-29T17:21:59.328Z,94.50
2022-10-29T17:24:27.266Z,94.50
2022-10-29T17:26:54.615Z,94.50
2022-10-29T17:29:24.310Z,94.50
2022-10-29T17:31:51.620Z,94.50
2022-10-29T17:38:23.381Z,94.40
2022-10-29T17:40:50.443Z,94.40
2022-10-29T17:43:17.661Z,94.40
2022-10-29T17:45:47.115Z,94.40
2022-10-29T17:48:14.260Z,94.40
2022-10-29T17:50:41.281Z,94.40
2022-10-29T17:53:10.815Z,94.40
2022-10-29T17:55:37.859Z,94.50
2022-10-29T17:58:18.146Z,94.50
2022-10-29T18:00:55.073Z,94.50
2022-10-29T18:03:29.480Z,94.50
2022-10-29T18:06:01.392Z,94.60
2022-10-29T18:08:31.907Z,94.60
2022-10-29T18:11:08.343Z,94.70
2022-10-29T18:14:53.417Z,94.70
2022-10-29T18:17:43.757Z,94.80
2022-10-29T18:20:11.422Z,94.80
2022-10-29T18:22:41.592Z,94.90
2022-10-29T18:25:13.061Z,95.00
2022-10-29T18:27:41.124Z,95.00
2022-10-29T18:33:12.776Z,95.10
2022-10-29T18:35:39.826Z,95.10
2022-10-29T18:38:12.242Z,95.10
2022-10-29T18:40:42.358Z,95.10
2022-10-29T18:43:09.519Z,95.20
2022-10-29T18:45:36.843Z,95.20
2022-10-29T18:48:06.849Z,95.20
2022-10-29T18:50:46.755Z,95.30
2022-10-29T18:53:15.379Z,95.30
2022-10-29T18:55:53.310Z,95.30
2022-10-29T18:58:29.539Z,95.30
2022-10-29T19:01:05.262Z,95.40
2022-10-29T19:03:41.220Z,95.40
2022-10-29T19:06:12.412Z,95.40
2022-10-29T19:08:45.008Z,95.50
2022-10-29T19:15:33.001Z,95.50
2022-10-29T19:18:00.601Z,95.60
2022-10-29T19:20:54.479Z,95.60
2022-10-29T19:31:49.725Z,95.60
2022-10-29T19:34:32.634Z,95.50
2022-10-29T19:37:05.796Z,95.60
2022-10-29T19:39:33.560Z,95.50
2022-10-29T19:42:14.432Z,95.50
2022-10-29T19:49:08.411Z,95.40
2022-10-29T19:51:38.434Z,95.30
2022-10-29T19:54:09.217Z,95.30
2022-10-29T19:56:39.195Z,95.30
2022-10-29T19:59:38.271Z,95.20
2022-10-29T20:02:19.061Z,95.20
2022-10-29T20:04:48.522Z,95.20
2022-10-29T20:07:15.802Z,95.10
2022-10-29T20:09:42.876Z,95.10
2022-10-29T20:12:09.950Z,95.00
2022-10-29T20:15:00.550Z,95.00
2022-10-29T20:18:19.168Z,95.00
2022-10-29T20:20:59.727Z,95.00
2022-10-29T20:23:48.760Z,95.10
2022-10-29T20:26:15.750Z,95.00
2022-10-29T20:28:42.895Z,95.10
2022-10-29T20:31:19.606Z,95.20
2022-10-29T20:33:54.608Z,95.20
2022-10-29T20:36:49.947Z,95.20
2022-10-29T20:39:30.842Z,95.20
2022-10-29T20:42:03.730Z,95.30
2022-10-29T20:44:30.855Z,95.30
2022-10-29T20:46:57.964Z,95.40
2022-10-29T20:49:25.032Z,95.40
2022-10-29T20:51:52.089Z,95.40
2022-10-29T20:54:19.454Z,95.50
2022-10-29T20:56:48.799Z,95.40
2022-10-29T20:59:23.142Z,95.50
2022-10-29T21:01:52.025Z,95.50
2022-10-29T21:04:19.199Z,95.50
2022-10-29T21:06:46.251Z,95.60
2022-10-29T21:09:23.049Z,95.50
2022-10-29T21:11:50.494Z,95.60
2022-10-29T21:14:17.796Z,95.60
2022-10-29T21:16:44.929Z,95.60
2022-10-29T21:19:11.931Z,95.60
2022-10-29T21:21:40.199Z,95.60
2022-10-29T21:24:07.573Z,95.70
2022-10-29T21:26:34.613Z,95.70
2022-10-29T21:29:04.613Z,95.70
2022-10-29T21:31:31.592Z,95.70
2022-10-29T21:33:58.572Z,95.70
2022-10-29T21:36:25.657Z,95.70
2022-10-29T21:39:06.395Z,95.70
2022-10-29T21:41:33.486Z,95.70
2022-10-29T21:44:00.416Z,95.70
2022-10-29T21:46:27.523Z,95.70
2022-10-29T21:48:56.545Z,95.70
2022-10-29T21:51:23.574Z,95.70
2022-10-29T21:53:50.551Z,95.80
2022-10-29T21:56:17.660Z,95.70
2022-10-29T21:58:44.765Z,95.80
2022-10-29T22:01:16.698Z,95.70
2022-10-29T22:03:45.804Z,95.70
2022-10-29T22:06:22.883Z,95.80
2022-10-29T22:09:10.032Z,95.80
2022-10-29T22:11:37.012Z,95.80
2022-10-29T22:14:04.188Z,95.80
2022-10-29T22:16:32.597Z,95.80
2022-10-29T22:18:59.684Z,95.80
2022-10-29T22:21:26.724Z,95.80
2022-10-29T22:23:55.823Z,95.90
2022-10-29T22:26:28.909Z,95.80
2022-10-29T22:28:58.481Z,95.80
2022-10-29T22:31:25.837Z,95.90
2022-10-29T22:33:53.117Z,95.90
2022-10-29T22:36:22.706Z,95.90
2022-10-29T22:38:54.656Z,95.90
2022-10-29T22:41:22.537Z,95.90
2022-10-29T22:43:49.902Z,96.00
2022-10-29T22:46:18.401Z,96.00
2022-10-29T22:48:45.974Z,96.00
2022-10-29T22:51:33.911Z,96.00
2022-10-29T22:54:01.195Z,95.90
2022-10-29T22:56:30.440Z,96.00
2022-10-29T22:58:57.697Z,96.00
2022-10-29T23:01:33.648Z,96.30
2022-10-29T23:04:03.234Z,96.00
2022-10-29T23:06:30.840Z,96.10
2022-10-29T23:08:58.688Z,96.10
2022-10-29T23:11:30.697Z,96.10
2022-10-29T23:13:59.489Z,96.10
2022-10-29T23:16:29.168Z,96.10
2022-10-29T23:18:58.334Z,96.20
2022-10-29T23:21:25.993Z,96.20
2022-10-29T23:23:53.703Z,96.20
2022-10-29T23:26:24.835Z,96.20
2022-10-29T23:28:55.360Z,96.20
2022-10-29T23:31:25.276Z,96.20
2022-10-29T23:33:56.718Z,96.20
2022-10-29T23:36:25.275Z,96.30
2022-10-29T23:39:02.491Z,96.30
2022-10-29T23:41:31.131Z,96.30
2022-10-29T23:43:58.793Z,96.30
2022-10-29T23:46:25.762Z,96.30
2022-10-29T23:48:52.749Z,96.30
2022-10-29T23:51:19.983Z,96.30
2022-10-29T23:53:50.278Z,96.30
2022-10-29T23:56:20.232Z,96.30
2022-10-29T23:58:47.233Z,96.30
